Terminal Aerodrome Forecast
Issued by NWS Boise, ID

Home | Current Version | Previous Version | Text Only | Print | Product List | Glossary On
Versions: 1 2 3 4 5 6 7 8 9 10 11 12 13 14 15
785
FTUS45 KBOI 221140
TAFBOI
TAF
KBOI 221140Z 2212/2312 13005KT P6SM FEW150
     FM221800 30008KT P6SM VCSH SCT070 BKN150
     FM230400 VRB05KT P6SM BKN150=

USA.gov is the U.S. government's official web portal to all federal, state and local government web resources and services.